sensor_id;sensor_type;location;lat;lon;timestamp;pressure;altitude;pressure_sealevel;temperature;humidity
25650;BME280;13505;45.196;5.696;2023-05-02T06:02:36;99388.09;;;13.28;75.16
25650;BME280;13505;45.196;5.696;2023-05-02T06:07:26;99394.22;;;13.46;75.02
25650;BME280;13505;45.196;5.696;2023-05-02T06:12:18;99384.97;;;13.53;73.86
25650;BME280;13505;45.196;5.696;2023-05-02T06:17:08;99406.72;;;13.76;72.48
25650;BME280;13505;45.196;5.696;2023-05-02T06:21:58;99402.69;;;13.85;72.96
25650;BME280;13505;45.196;5.696;2023-05-02T06:26:49;99417.56;;;13.87;72.64
25650;BME280;13505;45.196;5.696;2023-05-02T06:31:40;99420.56;;;13.97;72.51
25650;BME280;13505;45.196;5.696;2023-05-02T06:36:31;99434.25;;;13.89;72.92
25650;BME280;13505;45.196;5.696;2023-05-02T06:41:21;99427.81;;;13.93;71.15
25650;BME280;13505;45.196;5.696;2023-05-02T06:46:12;99416.63;;;14.51;69.67
25650;BME280;13505;45.196;5.696;2023-05-02T06:51:02;99414.78;;;14.68;68.91
25650;BME280;13505;45.196;5.696;2023-05-02T06:55:53;99408.97;;;14.91;66.52
25650;BME280;13505;45.196;5.696;2023-05-02T07:00:43;99416.66;;;14.96;67.08
25650;BME280;13505;45.196;5.696;2023-05-02T07:05:34;99411.44;;;14.95;67.93
25650;BME280;13505;45.196;5.696;2023-05-02T07:10:25;99417.53;;;15.11;66.48
25650;BME280;13505;45.196;5.696;2023-05-02T07:15:15;99416.19;;;15.18;66.19
25650;BME280;13505;45.196;5.696;2023-05-02T07:20:06;99415.91;;;15.52;65.59
25650;BME280;13505;45.196;5.696;2023-05-02T07:24:59;99426.81;;;15.76;63.92
25650;BME280;13505;45.196;5.696;2023-05-02T07:29:50;99414.91;;;15.82;65.41
25650;BME280;13505;45.196;5.696;2023-05-02T07:34:40;99419.38;;;15.82;63.57
25650;BME280;13505;45.196;5.696;2023-05-02T07:39:32;99409.22;;;15.88;62.81
25650;BME280;13505;45.196;5.696;2023-05-02T07:44:22;99400.84;;;16.22;63.22
25650;BME280;13505;45.196;5.696;2023-05-02T07:49:13;99404.91;;;16.28;62.26
25650;BME280;13505;45.196;5.696;2023-05-02T07:54:16;99394.00;;;16.45;62.17
25650;BME280;13505;45.196;5.696;2023-05-02T07:59:07;99393.44;;;16.40;60.01
25650;BME280;13505;45.196;5.696;2023-05-02T08:03:57;99391.50;;;16.96;60.28
25650;BME280;13505;45.196;5.696;2023-05-02T08:08:47;99389.28;;;16.77;59.41
25650;BME280;13505;45.196;5.696;2023-05-02T08:13:37;99408.75;;;16.24;60.68
25650;BME280;13505;45.196;5.696;2023-05-02T08:18:28;99395.03;;;16.30;61.94
25650;BME280;13505;45.196;5.696;2023-05-02T08:23:18;99395.28;;;16.40;61.19
25650;BME280;13505;45.196;5.696;2023-05-02T08:28:09;99397.91;;;16.80;59.49
25650;BME280;13505;45.196;5.696;2023-05-02T08:32:59;99400.09;;;17.01;58.93
25650;BME280;13505;45.196;5.696;2023-05-02T08:37:49;99401.34;;;17.84;56.65
25650;BME280;13505;45.196;5.696;2023-05-02T08:42:41;99404.06;;;17.96;55.34
25650;BME280;13505;45.196;5.696;2023-05-02T08:47:33;99398.09;;;18.05;54.85
25650;BME280;13505;45.196;5.696;2023-05-02T08:52:25;99398.13;;;18.41;53.74
25650;BME280;13505;45.196;5.696;2023-05-02T08:57:16;99412.22;;;18.43;52.68
25650;BME280;13505;45.196;5.696;2023-05-02T09:07:20;99408.31;;;17.61;54.54
25650;BME280;13505;45.196;5.696;2023-05-02T09:12:11;99401.19;;;17.62;54.54
25650;BME280;13505;45.196;5.696;2023-05-02T09:17:01;99410.41;;;17.44;55.68
25650;BME280;13505;45.196;5.696;2023-05-02T09:21:58;99404.00;;;17.47;55.15
25650;BME280;13505;45.196;5.696;2023-05-02T09:26:57;99401.25;;;17.73;54.83
25650;BME280;13505;45.196;5.696;2023-05-02T09:31:48;99399.25;;;18.01;53.67
25650;BME280;13505;45.196;5.696;2023-05-02T09:36:41;99403.63;;;18.02;53.26
25650;BME280;13505;45.196;5.696;2023-05-02T09:41:45;99402.66;;;17.66;54.43
25650;BME280;13505;45.196;5.696;2023-05-02T09:46:39;99396.84;;;16.96;56.34
25650;BME280;13505;45.196;5.696;2023-05-02T09:51:30;99388.19;;;17.44;55.79
25650;BME280;13505;45.196;5.696;2023-05-02T09:56:21;99381.31;;;17.28;55.75
25650;BME280;13505;45.196;5.696;2023-05-02T10:01:15;99391.75;;;17.32;56.52
25650;BME280;13505;45.196;5.696;2023-05-02T10:06:07;99389.25;;;17.41;55.77
25650;BME280;13505;45.196;5.696;2023-05-02T10:10:59;99388.00;;;17.34;55.74
25650;BME280;13505;45.196;5.696;2023-05-02T10:15:58;99388.44;;;17.41;56.06
25650;BME280;13505;45.196;5.696;2023-05-02T10:21:00;99373.81;;;17.47;55.75
25650;BME280;13505;45.196;5.696;2023-05-02T10:25:56;99385.53;;;17.44;55.18
25650;BME280;13505;45.196;5.696;2023-05-02T10:30:47;99381.88;;;17.58;55.19
25650;BME280;13505;45.196;5.696;2023-05-02T10:35:43;99378.56;;;17.54;54.81
25650;BME280;13505;45.196;5.696;2023-05-02T10:40:34;99375.59;;;17.59;55.13
25650;BME280;13505;45.196;5.696;2023-05-02T10:45:32;99374.19;;;17.66;55.28
25650;BME280;13505;45.196;5.696;2023-05-02T10:50:41;99373.13;;;17.69;54.74
25650;BME280;13505;45.196;5.696;2023-05-02T10:55:32;99375.38;;;17.86;54.82
25650;BME280;13505;45.196;5.696;2023-05-02T11:00:28;99363.00;;;17.85;55.12
25650;BME280;13505;45.196;5.696;2023-05-02T11:05:23;99363.50;;;18.04;54.42
25650;BME280;13505;45.196;5.696;2023-05-02T11:15:07;99335.16;;;18.14;53.31
25650;BME280;13505;45.196;5.696;2023-05-02T11:24:51;99335.38;;;18.35;51.88
25650;BME280;13505;45.196;5.696;2023-05-02T11:29:51;99328.81;;;19.21;52.53
25650;BME280;13505;45.196;5.696;2023-05-02T11:34:42;99330.00;;;19.51;50.73
25650;BME280;13505;45.196;5.696;2023-05-02T11:39:33;99330.38;;;19.46;51.25
25650;BME280;13505;45.196;5.696;2023-05-02T11:44:23;99322.59;;;19.99;49.69
25650;BME280;13505;45.196;5.696;2023-05-02T11:49:14;99309.22;;;20.62;47.71
25650;BME280;13505;45.196;5.696;2023-05-02T11:54:04;99305.00;;;21.22;46.29
25650;BME280;13505;45.196;5.696;2023-05-02T11:58:58;99311.72;;;21.38;45.42
25650;BME280;13505;45.196;5.696;2023-05-02T12:03:49;99307.00;;;21.71;45.30
25650;BME280;13505;45.196;5.696;2023-05-02T12:08:42;99305.44;;;22.17;43.54
25650;BME280;13505;45.196;5.696;2023-05-02T12:13:33;99312.09;;;22.13;43.42
25650;BME280;13505;45.196;5.696;2023-05-02T12:18:25;99301.56;;;22.69;42.39
25650;BME280;13505;45.196;5.696;2023-05-02T12:23:17;99295.41;;;23.25;41.36
25650;BME280;13505;45.196;5.696;2023-05-02T12:28:09;99293.03;;;23.50;41.46
25650;BME280;13505;45.196;5.696;2023-05-02T12:33:00;99288.16;;;23.81;39.01
25650;BME280;13505;45.196;5.696;2023-05-02T12:37:51;99295.44;;;23.89;39.21
25650;BME280;13505;45.196;5.696;2023-05-02T12:42:57;99288.53;;;24.05;38.17
25650;BME280;13505;45.196;5.696;2023-05-02T12:47:48;99289.22;;;24.25;38.49
25650;BME280;13505;45.196;5.696;2023-05-02T12:52:49;99286.41;;;24.61;37.42
25650;BME280;13505;45.196;5.696;2023-05-02T12:57:40;99288.84;;;24.46;38.05
25650;BME280;13505;45.196;5.696;2023-05-02T13:02:31;99281.78;;;24.45;37.55
25650;BME280;13505;45.196;5.696;2023-05-02T13:07:22;99290.16;;;23.79;37.36
25650;BME280;13505;45.196;5.696;2023-05-02T13:12:12;99285.44;;;23.63;37.89
25650;BME280;13505;45.196;5.696;2023-05-02T13:17:03;99278.88;;;23.48;37.25
25650;BME280;13505;45.196;5.696;2023-05-02T13:21:53;99273.50;;;23.66;37.75
25650;BME280;13505;45.196;5.696;2023-05-02T13:26:43;99280.84;;;23.92;36.59
25650;BME280;13505;45.196;5.696;2023-05-02T13:31:35;99271.91;;;23.73;37.76
25650;BME280;13505;45.196;5.696;2023-05-02T13:36:25;99253.91;;;23.92;37.57
25650;BME280;13505;45.196;5.696;2023-05-02T13:41:16;99266.97;;;24.23;37.49
25650;BME280;13505;45.196;5.696;2023-05-02T13:46:06;99255.28;;;24.41;38.53
25650;BME280;13505;45.196;5.696;2023-05-02T13:50:56;99252.50;;;24.50;38.29
25650;BME280;13505;45.196;5.696;2023-05-02T13:55:47;99254.53;;;24.48;38.53
25650;BME280;13505;45.196;5.696;2023-05-02T14:00:37;99254.06;;;24.61;37.75
25650;BME280;13505;45.196;5.696;2023-05-02T14:05:28;99248.22;;;24.39;38.40
25650;BME280;13505;45.196;5.696;2023-05-02T14:10:18;99241.06;;;24.30;39.09
25650;BME280;13505;45.196;5.696;2023-05-02T14:15:08;99240.16;;;24.74;38.12
25650;BME280;13505;45.196;5.696;2023-05-02T14:19:59;99232.06;;;24.74;38.36
25650;BME280;13505;45.196;5.696;2023-05-02T14:24:49;99240.38;;;24.81;37.85
25650;BME280;13505;45.196;5.696;2023-05-02T14:29:40;99238.94;;;24.69;38.18
25650;BME280;13505;45.196;5.696;2023-05-02T14:34:30;99238.13;;;24.76;36.94
25650;BME280;13505;45.196;5.696;2023-05-02T14:39:21;99229.25;;;24.84;36.62
25650;BME280;13505;45.196;5.696;2023-05-02T14:44:11;99236.66;;;25.17;36.13
25650;BME280;13505;45.196;5.696;2023-05-02T14:49:01;99235.19;;;24.88;36.37
25650;BME280;13505;45.196;5.696;2023-05-02T14:53:52;99228.63;;;24.90;36.88
25650;BME280;13505;45.196;5.696;2023-05-02T14:58:43;99234.03;;;24.64;36.92
25650;BME280;13505;45.196;5.696;2023-05-02T15:08:26;99248.41;;;24.46;37.54
25650;BME280;13505;45.196;5.696;2023-05-02T15:13:16;99246.03;;;24.17;38.62
25650;BME280;13505;45.196;5.696;2023-05-02T15:18:07;99240.72;;;24.25;37.54
25650;BME280;13505;45.196;5.696;2023-05-02T15:22:57;99245.28;;;24.06;36.05
25650;BME280;13505;45.196;5.696;2023-05-02T15:27:52;99230.91;;;23.79;37.24
25650;BME280;13505;45.196;5.696;2023-05-02T15:32:42;99256.50;;;23.83;34.21
25650;BME280;13505;45.196;5.696;2023-05-02T15:37:33;99253.13;;;23.81;36.53
25650;BME280;13505;45.196;5.696;2023-05-02T15:42:24;99243.50;;;23.79;35.59
25650;BME280;13505;45.196;5.696;2023-05-02T15:47:14;99245.59;;;23.85;34.96
25650;BME280;13505;45.196;5.696;2023-05-02T15:52:04;99265.25;;;22.93;30.85
25650;BME280;13505;45.196;5.696;2023-05-02T15:56:55;99264.56;;;22.91;34.01
25650;BME280;13505;45.196;5.696;2023-05-02T16:01:45;99254.66;;;23.20;33.71
25650;BME280;13505;45.196;5.696;2023-05-02T16:06:36;99261.47;;;22.86;31.63
25650;BME280;13505;45.196;5.696;2023-05-02T16:11:27;99255.47;;;23.02;32.55
25650;BME280;13505;45.196;5.696;2023-05-02T16:16:17;99270.50;;;22.95;32.62
25650;BME280;13505;45.196;5.696;2023-05-02T16:21:07;99262.66;;;22.74;31.89
25650;BME280;13505;45.196;5.696;2023-05-02T16:25:59;99273.31;;;22.65;31.51
25650;BME280;13505;45.196;5.696;2023-05-02T16:30:50;99266.09;;;22.46;32.40
25650;BME280;13505;45.196;5.696;2023-05-02T16:35:41;99278.47;;;22.09;31.75
25650;BME280;13505;45.196;5.696;2023-05-02T16:40:31;99276.75;;;22.18;32.17
25650;BME280;13505;45.196;5.696;2023-05-02T16:45:22;99267.84;;;22.17;31.55
25650;BME280;13505;45.196;5.696;2023-05-02T16:50:12;99279.47;;;21.98;31.90
25650;BME280;13505;45.196;5.696;2023-05-02T16:55:04;99275.59;;;21.52;32.16
25650;BME280;13505;45.196;5.696;2023-05-02T16:59:54;99276.50;;;21.92;31.97
25650;BME280;13505;45.196;5.696;2023-05-02T17:04:45;99283.56;;;21.93;31.99
25650;BME280;13505;45.196;5.696;2023-05-02T17:09:36;99291.47;;;21.74;33.71
25650;BME280;13505;45.196;5.696;2023-05-02T17:14:27;99292.31;;;21.75;33.81
25650;BME280;13505;45.196;5.696;2023-05-02T17:19:18;99285.53;;;21.81;34.03
25650;BME280;13505;45.196;5.696;2023-05-02T17:24:08;99291.88;;;21.80;34.18
25650;BME280;13505;45.196;5.696;2023-05-02T17:28:58;99290.00;;;21.60;32.58
25650;BME280;13505;45.196;5.696;2023-05-02T17:33:49;99302.09;;;21.35;32.74
25650;BME280;13505;45.196;5.696;2023-05-02T17:38:40;99301.38;;;21.33;32.81
25650;BME280;13505;45.196;5.696;2023-05-02T17:43:36;99300.94;;;21.28;33.71
25650;BME280;13505;45.196;5.696;2023-05-02T17:48:27;99301.16;;;21.05;33.24
25650;BME280;13505;45.196;5.696;2023-05-02T17:53:17;99301.25;;;20.94;34.48
25650;BME280;13505;45.196;5.696;2023-05-02T17:58:08;99302.75;;;20.86;34.74
